DEB weather

Debrecen International Airport
Debrecen, Hajdu-Bihar, Hungary

Public forecast

Using degrees Celsius for public forecast. Weather courtesy of forecast.io.

METAR (pilot weather report)

Retrieved 2019/09/19 17:15 UTC (29 minutes ago):

LHDC 191715Z AUTO 00000KT 9000 NCD 13/03 Q1022 NOSIG

TAF (pilot weather forecast)

Forecast is more than 12 hours old.

Retrieved 2018/12/01 21:12 UTC (10 months ago):

TAF TAF LHDC 010000Z 3021/0106 CNL